sensor_id;sensor_type;location;lat;lon;timestamp;pressure;altitude;pressure_sealevel;temperature;humidity
77017;BME280;65949;53.132;17.930;2023-04-08T00:00:54;101629.02;;;7.06;85.85
77017;BME280;65949;53.132;17.930;2023-04-08T00:03:21;101631.50;;;7.06;85.68
77017;BME280;65949;53.132;17.930;2023-04-08T00:05:48;101630.47;;;7.05;85.81
77017;BME280;65949;53.132;17.930;2023-04-08T00:08:14;101630.66;;;7.03;86.03
77017;BME280;65949;53.132;17.930;2023-04-08T00:10:41;101631.23;;;7.02;86.02
77017;BME280;65949;53.132;17.930;2023-04-08T00:13:07;101631.00;;;6.99;85.93
77017;BME280;65949;53.132;17.930;2023-04-08T00:15:35;101638.92;;;6.98;85.78
77017;BME280;65949;53.132;17.930;2023-04-08T00:18:02;101638.54;;;6.96;86.04
77017;BME280;65949;53.132;17.930;2023-04-08T00:20:29;101637.83;;;6.94;86.15
77017;BME280;65949;53.132;17.930;2023-04-08T00:22:55;101642.06;;;6.92;86.06
77017;BME280;65949;53.132;17.930;2023-04-08T00:25:22;101641.47;;;6.90;86.22
77017;BME280;65949;53.132;17.930;2023-04-08T00:27:48;101642.73;;;6.88;85.98
77017;BME280;65949;53.132;17.930;2023-04-08T00:30:16;101648.73;;;6.86;86.18
77017;BME280;65949;53.132;17.930;2023-04-08T00:32:44;101652.23;;;6.83;86.12
77017;BME280;65949;53.132;17.930;2023-04-08T00:35:11;101652.73;;;6.82;86.24
77017;BME280;65949;53.132;17.930;2023-04-08T00:37:38;101653.14;;;6.79;86.23
77017;BME280;65949;53.132;17.930;2023-04-08T00:40:05;101655.10;;;6.76;86.43
77017;BME280;65949;53.132;17.930;2023-04-08T00:42:32;101653.42;;;6.73;86.22
77017;BME280;65949;53.132;17.930;2023-04-08T00:44:59;101653.35;;;6.71;86.15
77017;BME280;65949;53.132;17.930;2023-04-08T00:47:25;101657.78;;;6.69;86.00
77017;BME280;65949;53.132;17.930;2023-04-08T00:49:52;101664.20;;;6.67;86.16
77017;BME280;65949;53.132;17.930;2023-04-08T00:52:19;101665.88;;;6.65;86.08
77017;BME280;65949;53.132;17.930;2023-04-08T00:54:46;101667.79;;;6.62;86.21
77017;BME280;65949;53.132;17.930;2023-04-08T00:57:12;101670.86;;;6.60;86.00
77017;BME280;65949;53.132;17.930;2023-04-08T00:59:40;101672.14;;;6.57;86.23
77017;BME280;65949;53.132;17.930;2023-04-08T01:02:17;101668.23;;;6.55;86.18
77017;BME280;65949;53.132;17.930;2023-04-08T01:05:12;101668.77;;;6.53;86.08
77017;BME280;65949;53.132;17.930;2023-04-08T01:07:49;101671.59;;;6.48;85.99
77017;BME280;65949;53.132;17.930;2023-04-08T01:10:20;101671.08;;;6.44;85.83
77017;BME280;65949;53.132;17.930;2023-04-08T01:12:55;101675.06;;;6.40;85.85
77017;BME280;65949;53.132;17.930;2023-04-08T01:15:26;101678.06;;;6.35;85.84
77017;BME280;65949;53.132;17.930;2023-04-08T01:17:55;101678.45;;;6.29;85.76
77017;BME280;65949;53.132;17.930;2023-04-08T01:20:26;101683.55;;;6.23;85.72
77017;BME280;65949;53.132;17.930;2023-04-08T01:25:35;101690.42;;;6.12;85.68
77017;BME280;65949;53.132;17.930;2023-04-08T01:28:09;101691.89;;;6.06;85.49
77017;BME280;65949;53.132;17.930;2023-04-08T01:30:40;101687.77;;;5.99;85.44
77017;BME280;65949;53.132;17.930;2023-04-08T01:33:13;101687.84;;;5.92;85.36
77017;BME280;65949;53.132;17.930;2023-04-08T01:35:41;101691.24;;;5.85;85.39
77017;BME280;65949;53.132;17.930;2023-04-08T01:38:10;101694.31;;;5.79;85.31
77017;BME280;65949;53.132;17.930;2023-04-08T01:40:39;101694.09;;;5.73;85.37
77017;BME280;65949;53.132;17.930;2023-04-08T01:43:10;101693.88;;;5.68;85.42
77017;BME280;65949;53.132;17.930;2023-04-08T01:45:38;101694.93;;;5.62;85.39
77017;BME280;65949;53.132;17.930;2023-04-08T01:48:05;101700.25;;;5.57;85.38
77017;BME280;65949;53.132;17.930;2023-04-08T01:50:33;101701.34;;;5.51;85.38
77017;BME280;65949;53.132;17.930;2023-04-08T01:53:01;101699.61;;;5.46;85.55
77017;BME280;65949;53.132;17.930;2023-04-08T01:55:31;101705.52;;;5.41;85.57
77017;BME280;65949;53.132;17.930;2023-04-08T01:57:59;101706.09;;;5.37;85.33
77017;BME280;65949;53.132;17.930;2023-04-08T02:00:28;101707.55;;;5.33;85.33
77017;BME280;65949;53.132;17.930;2023-04-08T02:02:56;101712.05;;;5.28;85.37
77017;BME280;65949;53.132;17.930;2023-04-08T02:05:24;101714.89;;;5.25;85.74
77017;BME280;65949;53.132;17.930;2023-04-08T02:07:51;101714.91;;;5.21;85.65
77017;BME280;65949;53.132;17.930;2023-04-08T02:10:17;101719.70;;;5.16;85.60
77017;BME280;65949;53.132;17.930;2023-04-08T02:12:45;101725.84;;;5.11;85.33
77017;BME280;65949;53.132;17.930;2023-04-08T02:15:13;101723.75;;;5.05;85.38
77017;BME280;65949;53.132;17.930;2023-04-08T02:17:46;101722.80;;;5.01;85.21
77017;BME280;65949;53.132;17.930;2023-04-08T02:22:51;101729.20;;;4.90;85.22
77017;BME280;65949;53.132;17.930;2023-04-08T02:25:22;101729.80;;;4.85;85.11
77017;BME280;65949;53.132;17.930;2023-04-08T02:27:51;101734.17;;;4.80;84.97
77017;BME280;65949;53.132;17.930;2023-04-08T02:30:18;101733.30;;;4.74;85.04
77017;BME280;65949;53.132;17.930;2023-04-08T02:32:47;101732.94;;;4.69;85.05
77017;BME280;65949;53.132;17.930;2023-04-08T02:35:16;101731.52;;;4.64;85.11
77017;BME280;65949;53.132;17.930;2023-04-08T02:37:45;101738.16;;;4.59;84.93
77017;BME280;65949;53.132;17.930;2023-04-08T02:40:30;101739.06;;;4.54;85.09
77017;BME280;65949;53.132;17.930;2023-04-08T02:42:58;101737.40;;;4.50;85.13
77017;BME280;65949;53.132;17.930;2023-04-08T02:45:30;101743.45;;;4.47;85.11
77017;BME280;65949;53.132;17.930;2023-04-08T02:47:58;101746.04;;;4.43;85.07
77017;BME280;65949;53.132;17.930;2023-04-08T02:50:26;101749.23;;;4.39;85.23
77017;BME280;65949;53.132;17.930;2023-04-08T02:52:53;101751.52;;;4.36;85.16
77017;BME280;65949;53.132;17.930;2023-04-08T02:55:21;101751.09;;;4.32;84.84
77017;BME280;65949;53.132;17.930;2023-04-08T02:57:48;101756.45;;;4.28;85.14
77017;BME280;65949;53.132;17.930;2023-04-08T03:00:15;101763.27;;;4.23;85.16
77017;BME280;65949;53.132;17.930;2023-04-08T03:02:42;101764.46;;;4.19;84.93
77017;BME280;65949;53.132;17.930;2023-04-08T03:05:09;101768.03;;;4.15;85.35
77017;BME280;65949;53.132;17.930;2023-04-08T03:07:36;101768.31;;;4.11;85.09
77017;BME280;65949;53.132;17.930;2023-04-08T03:10:04;101771.38;;;4.08;84.97
77017;BME280;65949;53.132;17.930;2023-04-08T03:12:31;101771.29;;;4.05;84.89
77017;BME280;65949;53.132;17.930;2023-04-08T03:14:58;101776.34;;;4.02;85.13
77017;BME280;65949;53.132;17.930;2023-04-08T03:17:25;101774.67;;;3.98;85.18
77017;BME280;65949;53.132;17.930;2023-04-08T03:19:52;101775.89;;;3.97;84.94
77017;BME280;65949;53.132;17.930;2023-04-08T03:22:18;101775.36;;;3.96;85.12
77017;BME280;65949;53.132;17.930;2023-04-08T03:24:45;101776.04;;;3.93;84.87
77017;BME280;65949;53.132;17.930;2023-04-08T03:27:12;101775.53;;;3.90;84.67
77017;BME280;65949;53.132;17.930;2023-04-08T03:29:39;101776.73;;;3.87;84.92
77017;BME280;65949;53.132;17.930;2023-04-08T03:32:06;101774.82;;;3.84;84.88
77017;BME280;65949;53.132;17.930;2023-04-08T03:34:33;101775.64;;;3.82;84.87
77017;BME280;65949;53.132;17.930;2023-04-08T03:37:01;101778.96;;;3.78;84.81
77017;BME280;65949;53.132;17.930;2023-04-08T03:39:27;101777.80;;;3.75;84.92
77017;BME280;65949;53.132;17.930;2023-04-08T03:41:54;101781.54;;;3.71;85.02
77017;BME280;65949;53.132;17.930;2023-04-08T03:44:21;101781.18;;;3.68;85.23
77017;BME280;65949;53.132;17.930;2023-04-08T03:46:47;101784.13;;;3.65;85.24
77017;BME280;65949;53.132;17.930;2023-04-08T03:49:14;101785.42;;;3.61;85.11
77017;BME280;65949;53.132;17.930;2023-04-08T03:51:40;101786.57;;;3.59;84.95
77017;BME280;65949;53.132;17.930;2023-04-08T03:54:07;101790.73;;;3.56;85.06
77017;BME280;65949;53.132;17.930;2023-04-08T03:56:34;101790.80;;;3.52;85.16
77017;BME280;65949;53.132;17.930;2023-04-08T03:59:00;101797.65;;;3.51;85.03
77017;BME280;65949;53.132;17.930;2023-04-08T04:01:27;101800.61;;;3.49;85.07
77017;BME280;65949;53.132;17.930;2023-04-08T04:03:55;101803.98;;;3.47;85.08
77017;BME280;65949;53.132;17.930;2023-04-08T04:06:22;101802.33;;;3.45;85.18
77017;BME280;65949;53.132;17.930;2023-04-08T04:08:48;101801.11;;;3.42;85.04
77017;BME280;65949;53.132;17.930;2023-04-08T04:11:15;101806.73;;;3.40;84.99
77017;BME280;65949;53.132;17.930;2023-04-08T04:13:42;101803.03;;;3.36;85.01
77017;BME280;65949;53.132;17.930;2023-04-08T04:16:08;101810.43;;;3.34;84.80
77017;BME280;65949;53.132;17.930;2023-04-08T04:18:35;101811.11;;;3.33;84.74
77017;BME280;65949;53.132;17.930;2023-04-08T04:21:04;101812.41;;;3.32;84.92
77017;BME280;65949;53.132;17.930;2023-04-08T04:23:32;101817.73;;;3.32;84.89
77017;BME280;65949;53.132;17.930;2023-04-08T04:25:59;101820.02;;;3.32;84.75
77017;BME280;65949;53.132;17.930;2023-04-08T04:28:25;101821.92;;;3.32;84.77
77017;BME280;65949;53.132;17.930;2023-04-08T04:30:52;101824.96;;;3.32;84.65
77017;BME280;65949;53.132;17.930;2023-04-08T04:33:18;101829.67;;;3.33;84.44
77017;BME280;65949;53.132;17.930;2023-04-08T04:35:45;101826.39;;;3.35;84.58
77017;BME280;65949;53.132;17.930;2023-04-08T04:38:12;101828.73;;;3.36;84.50
77017;BME280;65949;53.132;17.930;2023-04-08T04:40:39;101832.73;;;3.39;84.61
77017;BME280;65949;53.132;17.930;2023-04-08T04:43:06;101835.23;;;3.42;84.51
77017;BME280;65949;53.132;17.930;2023-04-08T04:45:32;101837.74;;;3.46;84.66
77017;BME280;65949;53.132;17.930;2023-04-08T04:47:59;101838.52;;;3.51;84.45
77017;BME280;65949;53.132;17.930;2023-04-08T04:50:26;101840.76;;;3.57;84.32
77017;BME280;65949;53.132;17.930;2023-04-08T04:52:52;101841.48;;;3.63;84.33
77017;BME280;65949;53.132;17.930;2023-04-08T04:55:19;101844.16;;;3.67;84.24
77017;BME280;65949;53.132;17.930;2023-04-08T04:57:48;101845.77;;;3.73;84.07
77017;BME280;65949;53.132;17.930;2023-04-08T05:00:14;101852.73;;;3.80;84.04
77017;BME280;65949;53.132;17.930;2023-04-08T05:02:42;101855.89;;;3.88;84.39
77017;BME280;65949;53.132;17.930;2023-04-08T05:05:09;101857.20;;;3.97;84.10
77017;BME280;65949;53.132;17.930;2023-04-08T05:07:37;101860.23;;;4.05;83.80
77017;BME280;65949;53.132;17.930;2023-04-08T05:10:04;101861.15;;;4.13;83.58
77017;BME280;65949;53.132;17.930;2023-04-08T05:12:32;101862.98;;;4.19;83.43
77017;BME280;65949;53.132;17.930;2023-04-08T05:14:58;101865.80;;;4.30;83.81
77017;BME280;65949;53.132;17.930;2023-04-08T05:17:25;101867.05;;;4.52;83.53
77017;BME280;65949;53.132;17.930;2023-04-08T05:19:52;101873.13;;;4.93;83.03
77017;BME280;65949;53.132;17.930;2023-04-08T05:22:19;101874.87;;;5.42;82.14
77017;BME280;65949;53.132;17.930;2023-04-08T05:24:45;101877.00;;;5.88;81.23
77017;BME280;65949;53.132;17.930;2023-04-08T05:27:12;101873.94;;;6.29;80.77
77017;BME280;65949;53.132;17.930;2023-04-08T05:29:38;101877.59;;;6.73;80.17
77017;BME280;65949;53.132;17.930;2023-04-08T05:32:05;101877.82;;;7.12;79.64
77017;BME280;65949;53.132;17.930;2023-04-08T05:34:32;101878.83;;;7.53;78.90
77017;BME280;65949;53.132;17.930;2023-04-08T05:36:59;101876.48;;;7.88;78.11
77017;BME280;65949;53.132;17.930;2023-04-08T05:39:26;101874.95;;;8.16;77.97
77017;BME280;65949;53.132;17.930;2023-04-08T05:41:52;101878.98;;;8.45;77.01
77017;BME280;65949;53.132;17.930;2023-04-08T05:44:19;101878.48;;;8.69;76.58
77017;BME280;65949;53.132;17.930;2023-04-08T05:46:45;101880.83;;;8.84;76.15
77017;BME280;65949;53.132;17.930;2023-04-08T05:49:12;101881.95;;;8.94;75.65
77017;BME280;65949;53.132;17.930;2023-04-08T05:51:39;101887.38;;;9.01;75.34
77017;BME280;65949;53.132;17.930;2023-04-08T05:54:05;101889.73;;;9.06;75.76
77017;BME280;65949;53.132;17.930;2023-04-08T05:56:32;101893.53;;;9.09;75.66
77017;BME280;65949;53.132;17.930;2023-04-08T05:58:59;101890.90;;;8.97;75.38
77017;BME280;65949;53.132;17.930;2023-04-08T06:01:25;101892.37;;;8.68;75.36
77017;BME280;65949;53.132;17.930;2023-04-08T06:03:52;101896.77;;;8.37;75.78
77017;BME280;65949;53.132;17.930;2023-04-08T06:06:21;101896.55;;;8.07;75.88
77017;BME280;65949;53.132;17.930;2023-04-08T06:08:48;101897.09;;;7.81;76.15
77017;BME280;65949;53.132;17.930;2023-04-08T06:11:15;101902.89;;;7.62;76.56
77017;BME280;65949;53.132;17.930;2023-04-08T06:13:41;101906.34;;;7.46;77.02
77017;BME280;65949;53.132;17.930;2023-04-08T06:16:12;101906.39;;;7.35;77.20
77017;BME280;65949;53.132;17.930;2023-04-08T06:18:39;101905.73;;;7.28;77.12
77017;BME280;65949;53.132;17.930;2023-04-08T06:21:06;101906.51;;;7.22;77.44
77017;BME280;65949;53.132;17.930;2023-04-08T06:23:33;101912.04;;;7.25;77.90
77017;BME280;65949;53.132;17.930;2023-04-08T06:26:00;101916.51;;;7.29;78.06
77017;BME280;65949;53.132;17.930;2023-04-08T06:28:28;101918.27;;;7.36;77.68
77017;BME280;65949;53.132;17.930;2023-04-08T06:30:56;101920.35;;;7.37;77.39
77017;BME280;65949;53.132;17.930;2023-04-08T06:33:23;101924.91;;;7.38;78.06
77017;BME280;65949;53.132;17.930;2023-04-08T06:35:50;101929.08;;;7.42;77.49
77017;BME280;65949;53.132;17.930;2023-04-08T06:38:16;101931.91;;;7.44;77.44
77017;BME280;65949;53.132;17.930;2023-04-08T06:40:43;101932.83;;;7.48;77.36
77017;BME280;65949;53.132;17.930;2023-04-08T06:43:09;101934.45;;;7.50;77.27
77017;BME280;65949;53.132;17.930;2023-04-08T06:45:38;101936.02;;;7.53;77.32
77017;BME280;65949;53.132;17.930;2023-04-08T06:48:05;101937.66;;;7.55;76.83
77017;BME280;65949;53.132;17.930;2023-04-08T06:50:34;101940.17;;;7.60;76.86
77017;BME280;65949;53.132;17.930;2023-04-08T06:53:01;101942.95;;;7.65;76.85
77017;BME280;65949;53.132;17.930;2023-04-08T06:55:28;101942.91;;;7.71;76.82
77017;BME280;65949;53.132;17.930;2023-04-08T06:57:54;101945.18;;;7.78;76.84
77017;BME280;65949;53.132;17.930;2023-04-08T07:00:21;101949.00;;;7.85;77.09
77017;BME280;65949;53.132;17.930;2023-04-08T07:02:48;101952.91;;;7.90;75.89
77017;BME280;65949;53.132;17.930;2023-04-08T07:05:14;101950.52;;;7.86;75.58
77017;BME280;65949;53.132;17.930;2023-04-08T07:07:41;101957.38;;;7.86;75.99
77017;BME280;65949;53.132;17.930;2023-04-08T07:10:08;101960.48;;;7.93;75.88
77017;BME280;65949;53.132;17.930;2023-04-08T07:12:35;101963.39;;;7.99;75.59
77017;BME280;65949;53.132;17.930;2023-04-08T07:15:01;101964.66;;;8.05;74.89
77017;BME280;65949;53.132;17.930;2023-04-08T07:17:29;101967.07;;;8.12;75.45
77017;BME280;65949;53.132;17.930;2023-04-08T07:19:55;101968.54;;;8.22;74.67
77017;BME280;65949;53.132;17.930;2023-04-08T07:22:23;101972.04;;;8.33;73.91
77017;BME280;65949;53.132;17.930;2023-04-08T07:24:49;101976.25;;;8.40;74.22
77017;BME280;65949;53.132;17.930;2023-04-08T07:27:16;101978.66;;;8.49;74.82
77017;BME280;65949;53.132;17.930;2023-04-08T07:29:43;101981.98;;;8.67;74.17
77017;BME280;65949;53.132;17.930;2023-04-08T07:32:09;101987.40;;;8.77;73.46
77017;BME280;65949;53.132;17.930;2023-04-08T07:34:36;101986.45;;;8.78;73.33
77017;BME280;65949;53.132;17.930;2023-04-08T07:37:03;101986.23;;;8.94;72.98
77017;BME280;65949;53.132;17.930;2023-04-08T07:39:29;101988.45;;;9.17;72.27
77017;BME280;65949;53.132;17.930;2023-04-08T07:41:56;101986.35;;;9.31;72.21
77017;BME280;65949;53.132;17.930;2023-04-08T07:44:23;101986.61;;;9.40;72.32
77017;BME280;65949;53.132;17.930;2023-04-08T07:46:49;101988.77;;;9.47;71.95
77017;BME280;65949;53.132;17.930;2023-04-08T07:49:17;101992.81;;;9.56;71.24
77017;BME280;65949;53.132;17.930;2023-04-08T07:51:43;101994.09;;;9.70;70.76
77017;BME280;65949;53.132;17.930;2023-04-08T07:54:10;101998.27;;;9.79;70.35
77017;BME280;65949;53.132;17.930;2023-04-08T07:56:38;101995.84;;;9.81;70.79
77017;BME280;65949;53.132;17.930;2023-04-08T07:59:09;101999.09;;;9.85;70.09
77017;BME280;65949;53.132;17.930;2023-04-08T08:01:36;101996.27;;;9.94;70.85
77017;BME280;65949;53.132;17.930;2023-04-08T08:04:03;101999.16;;;10.03;69.27
77017;BME280;65949;53.132;17.930;2023-04-08T08:06:30;102005.81;;;9.99;69.71
77017;BME280;65949;53.132;17.930;2023-04-08T08:08:59;102003.77;;;9.91;69.08
77017;BME280;65949;53.132;17.930;2023-04-08T08:11:26;102011.54;;;9.90;69.38
77017;BME280;65949;53.132;17.930;2023-04-08T08:13:53;102010.31;;;9.89;68.99
77017;BME280;65949;53.132;17.930;2023-04-08T08:16:20;102012.64;;;9.84;69.31
77017;BME280;65949;53.132;17.930;2023-04-08T08:18:46;102013.40;;;9.90;69.29
77017;BME280;65949;53.132;17.930;2023-04-08T08:21:13;102017.68;;;9.90;68.37
77017;BME280;65949;53.132;17.930;2023-04-08T08:23:40;102019.64;;;9.81;67.88
77017;BME280;65949;53.132;17.930;2023-04-08T08:26:08;102016.88;;;9.76;68.27
77017;BME280;65949;53.132;17.930;2023-04-08T08:28:36;102013.98;;;9.68;67.77
77017;BME280;65949;53.132;17.930;2023-04-08T08:31:03;102023.98;;;9.75;68.63
77017;BME280;65949;53.132;17.930;2023-04-08T08:33:32;102024.45;;;9.86;67.85
77017;BME280;65949;53.132;17.930;2023-04-08T08:35:58;102026.12;;;9.97;67.01
77017;BME280;65949;53.132;17.930;2023-04-08T08:38:25;102026.52;;;9.95;65.60
77017;BME280;65949;53.132;17.930;2023-04-08T08:40:56;102032.10;;;9.95;67.11
77017;BME280;65949;53.132;17.930;2023-04-08T08:43:24;102033.20;;;10.03;67.19
77017;BME280;65949;53.132;17.930;2023-04-08T08:45:52;102030.44;;;10.16;66.80
77017;BME280;65949;53.132;17.930;2023-04-08T08:48:18;102031.11;;;10.25;66.26
77017;BME280;65949;53.132;17.930;2023-04-08T08:50:45;102037.73;;;10.25;65.38
77017;BME280;65949;53.132;17.930;2023-04-08T08:53:12;102037.55;;;10.22;65.26
77017;BME280;65949;53.132;17.930;2023-04-08T08:55:38;102042.08;;;10.20;65.47
77017;BME280;65949;53.132;17.930;2023-04-08T08:58:06;102045.38;;;10.21;65.77
77017;BME280;65949;53.132;17.930;2023-04-08T09:00:37;102045.88;;;10.24;65.66
77017;BME280;65949;53.132;17.930;2023-04-08T09:03:17;102049.55;;;10.29;66.10
77017;BME280;65949;53.132;17.930;2023-04-08T09:05:58;102050.49;;;10.39;65.96
77017;BME280;65949;53.132;17.930;2023-04-08T09:11:11;102053.36;;;10.55;65.78
77017;BME280;65949;53.132;17.930;2023-04-08T09:13:38;102053.52;;;10.62;64.70
77017;BME280;65949;53.132;17.930;2023-04-08T09:16:09;102061.05;;;10.74;65.25
77017;BME280;65949;53.132;17.930;2023-04-08T09:18:37;102052.61;;;10.92;64.82
77017;BME280;65949;53.132;17.930;2023-04-08T09:21:05;102055.78;;;11.13;65.06
77017;BME280;65949;53.132;17.930;2023-04-08T09:23:42;102055.10;;;11.41;64.87
77017;BME280;65949;53.132;17.930;2023-04-08T09:26:15;102054.08;;;11.68;63.85
77017;BME280;65949;53.132;17.930;2023-04-08T09:28:43;102054.52;;;11.83;61.28
77017;BME280;65949;53.132;17.930;2023-04-08T09:31:25;102059.65;;;11.93;62.15
77017;BME280;65949;53.132;17.930;2023-04-08T09:33:54;102058.70;;;12.04;62.00
77017;BME280;65949;53.132;17.930;2023-04-08T09:36:22;102060.45;;;12.12;62.24
77017;BME280;65949;53.132;17.930;2023-04-08T09:38:48;102061.57;;;12.17;62.09
77017;BME280;65949;53.132;17.930;2023-04-08T09:41:16;102063.77;;;12.18;60.53
77017;BME280;65949;53.132;17.930;2023-04-08T09:43:47;102065.46;;;12.17;60.94
77017;BME280;65949;53.132;17.930;2023-04-08T09:46:24;102062.51;;;12.30;59.80
77017;BME280;65949;53.132;17.930;2023-04-08T09:49:05;102066.88;;;12.30;59.64
77017;BME280;65949;53.132;17.930;2023-04-08T09:51:40;102066.30;;;12.22;60.67
77017;BME280;65949;53.132;17.930;2023-04-08T09:54:13;102062.31;;;12.14;60.39
77017;BME280;65949;53.132;17.930;2023-04-08T09:56:51;102066.07;;;12.06;60.18
77017;BME280;65949;53.132;17.930;2023-04-08T09:59:21;102063.67;;;11.91;57.80
77017;BME280;65949;53.132;17.930;2023-04-08T10:01:53;102065.25;;;11.60;58.71
77017;BME280;65949;53.132;17.930;2023-04-08T10:04:23;102066.21;;;11.45;59.55
77017;BME280;65949;53.132;17.930;2023-04-08T10:06:56;102060.24;;;11.35;59.90
77017;BME280;65949;53.132;17.930;2023-04-08T10:09:25;102057.11;;;11.29;59.80
77017;BME280;65949;53.132;17.930;2023-04-08T10:11:54;102057.55;;;11.21;60.11
77017;BME280;65949;53.132;17.930;2023-04-08T10:14:21;102060.55;;;11.19;60.32
77017;BME280;65949;53.132;17.930;2023-04-08T10:16:48;102058.17;;;11.20;60.62
77017;BME280;65949;53.132;17.930;2023-04-08T10:19:39;102054.95;;;11.15;59.07
77017;BME280;65949;53.132;17.930;2023-04-08T10:27:42;102053.35;;;10.77;60.32
77017;BME280;65949;53.132;17.930;2023-04-08T10:32:54;102045.77;;;10.84;60.34
77017;BME280;65949;53.132;17.930;2023-04-08T10:35:31;102046.19;;;10.91;60.49
77017;BME280;65949;53.132;17.930;2023-04-08T10:37:58;102045.32;;;11.00;59.93
77017;BME280;65949;53.132;17.930;2023-04-08T10:40:25;102040.23;;;11.05;60.03
77017;BME280;65949;53.132;17.930;2023-04-08T10:42:58;102039.50;;;11.03;57.97
77017;BME280;65949;53.132;17.930;2023-04-08T10:45:25;102040.21;;;10.94;58.68
77017;BME280;65949;53.132;17.930;2023-04-08T10:47:52;102041.05;;;10.95;59.59
77017;BME280;65949;53.132;17.930;2023-04-08T10:50:19;102042.46;;;11.02;60.08
77017;BME280;65949;53.132;17.930;2023-04-08T10:52:53;102038.56;;;11.13;59.54
77017;BME280;65949;53.132;17.930;2023-04-08T10:55:23;102038.48;;;11.18;58.57
77017;BME280;65949;53.132;17.930;2023-04-08T10:57:51;102031.23;;;11.22;58.22
77017;BME280;65949;53.132;17.930;2023-04-08T11:00:38;102029.10;;;11.26;57.51
77017;BME280;65949;53.132;17.930;2023-04-08T11:03:07;102031.00;;;11.29;58.36
77017;BME280;65949;53.132;17.930;2023-04-08T11:05:34;102030.46;;;11.37;57.08
77017;BME280;65949;53.132;17.930;2023-04-08T11:08:03;102032.23;;;11.37;56.88
77017;BME280;65949;53.132;17.930;2023-04-08T11:10:30;102025.08;;;11.30;56.32
77017;BME280;65949;53.132;17.930;2023-04-08T11:12:57;102029.31;;;11.22;56.90
77017;BME280;65949;53.132;17.930;2023-04-08T11:15:24;102024.23;;;11.20;57.59
77017;BME280;65949;53.132;17.930;2023-04-08T11:17:52;102023.94;;;11.30;56.79
77017;BME280;65949;53.132;17.930;2023-04-08T11:20:19;102020.23;;;11.41;56.66
77017;BME280;65949;53.132;17.930;2023-04-08T11:22:47;102021.48;;;11.49;56.82
77017;BME280;65949;53.132;17.930;2023-04-08T11:25:16;102019.85;;;11.58;56.31
77017;BME280;65949;53.132;17.930;2023-04-08T11:27:42;102020.54;;;11.50;55.60
77017;BME280;65949;53.132;17.930;2023-04-08T11:30:10;102020.27;;;11.36;55.47
77017;BME280;65949;53.132;17.930;2023-04-08T11:32:37;102023.41;;;11.30;56.18
77017;BME280;65949;53.132;17.930;2023-04-08T11:35:06;102024.39;;;11.40;56.31
77017;BME280;65949;53.132;17.930;2023-04-08T11:37:39;102023.78;;;11.54;56.16
77017;BME280;65949;53.132;17.930;2023-04-08T11:40:10;102020.27;;;11.67;55.97
77017;BME280;65949;53.132;17.930;2023-04-08T11:42:38;102022.16;;;11.81;56.85
77017;BME280;65949;53.132;17.930;2023-04-08T11:45:13;102017.85;;;12.02;57.56
77017;BME280;65949;53.132;17.930;2023-04-08T11:47:42;102015.87;;;12.25;57.26
77017;BME280;65949;53.132;17.930;2023-04-08T11:50:09;102019.02;;;12.40;56.43
77017;BME280;65949;53.132;17.930;2023-04-08T11:52:46;102018.29;;;12.53;56.07
77017;BME280;65949;53.132;17.930;2023-04-08T11:57:50;102017.99;;;12.62;57.10
77017;BME280;65949;53.132;17.930;2023-04-08T12:00:19;102013.92;;;12.79;56.75
77017;BME280;65949;53.132;17.930;2023-04-08T12:02:46;102014.30;;;12.95;56.39
77017;BME280;65949;53.132;17.930;2023-04-08T12:05:16;102011.17;;;13.07;55.00
77017;BME280;65949;53.132;17.930;2023-04-08T12:07:43;102012.65;;;13.01;53.81
77017;BME280;65949;53.132;17.930;2023-04-08T12:18:03;102006.38;;;12.95;51.79
77017;BME280;65949;53.132;17.930;2023-04-08T12:20:31;102004.29;;;12.89;52.58
77017;BME280;65949;53.132;17.930;2023-04-08T12:22:58;102003.98;;;12.95;53.16
77017;BME280;65949;53.132;17.930;2023-04-08T12:25:24;102005.06;;;13.05;53.38
77017;BME280;65949;53.132;17.930;2023-04-08T12:27:51;102006.15;;;13.15;52.28
77017;BME280;65949;53.132;17.930;2023-04-08T12:30:18;102000.86;;;13.16;51.05
77017;BME280;65949;53.132;17.930;2023-04-08T12:32:44;101997.43;;;13.14;52.72
77017;BME280;65949;53.132;17.930;2023-04-08T12:35:12;101996.35;;;13.21;52.38
77017;BME280;65949;53.132;17.930;2023-04-08T12:37:40;101994.70;;;13.26;52.01
77017;BME280;65949;53.132;17.930;2023-04-08T12:40:07;101995.33;;;13.30;52.25
77017;BME280;65949;53.132;17.930;2023-04-08T12:42:34;101993.79;;;13.47;53.10
77017;BME280;65949;53.132;17.930;2023-04-08T12:45:01;101990.81;;;13.65;52.67
77017;BME280;65949;53.132;17.930;2023-04-08T12:47:28;101988.44;;;13.81;51.95
77017;BME280;65949;53.132;17.930;2023-04-08T12:49:54;101996.13;;;13.92;52.36
77017;BME280;65949;53.132;17.930;2023-04-08T12:52:21;101994.29;;;14.07;52.53
77017;BME280;65949;53.132;17.930;2023-04-08T12:54:48;101992.56;;;14.21;51.22
77017;BME280;65949;53.132;17.930;2023-04-08T12:57:14;101990.54;;;14.27;50.20
77017;BME280;65949;53.132;17.930;2023-04-08T12:59:41;101991.03;;;14.23;49.80
77017;BME280;65949;53.132;17.930;2023-04-08T13:02:08;101989.08;;;14.26;50.01
77017;BME280;65949;53.132;17.930;2023-04-08T13:04:34;101988.34;;;14.31;49.67
77017;BME280;65949;53.132;17.930;2023-04-08T13:07:01;101988.63;;;14.46;49.79
77017;BME280;65949;53.132;17.930;2023-04-08T13:09:29;101991.24;;;14.55;50.28
77017;BME280;65949;53.132;17.930;2023-04-08T13:11:56;101988.89;;;14.61;50.72
77017;BME280;65949;53.132;17.930;2023-04-08T13:14:23;101984.15;;;14.74;50.06
77017;BME280;65949;53.132;17.930;2023-04-08T13:16:50;101982.98;;;14.71;49.72
77017;BME280;65949;53.132;17.930;2023-04-08T13:19:17;101986.36;;;14.55;49.58